sensor_id;sensor_type;location;lat;lon;timestamp;P1;durP1;ratioP1;P2;durP2;ratioP2
23573;SDS011;11965;53.640;10.050;2023-03-03T00:00:47;37.42;;;36.69;;
23573;SDS011;11965;53.640;10.050;2023-03-03T00:03:16;36.83;;;36.00;;
23573;SDS011;11965;53.640;10.050;2023-03-03T00:05:46;36.87;;;35.89;;
23573;SDS011;11965;53.640;10.050;2023-03-03T00:08:13;36.32;;;35.21;;
23573;SDS011;11965;53.640;10.050;2023-03-03T00:10:40;34.74;;;33.89;;
23573;SDS011;11965;53.640;10.050;2023-03-03T00:13:11;34.69;;;33.91;;
23573;SDS011;11965;53.640;10.050;2023-03-03T00:15:41;34.00;;;33.34;;
23573;SDS011;11965;53.640;10.050;2023-03-03T00:18:18;34.13;;;33.50;;
23573;SDS011;11965;53.640;10.050;2023-03-03T00:20:52;33.75;;;32.99;;
23573;SDS011;11965;53.640;10.050;2023-03-03T00:23:27;33.64;;;32.96;;
23573;SDS011;11965;53.640;10.050;2023-03-03T00:25:56;33.17;;;32.62;;
23573;SDS011;11965;53.640;10.050;2023-03-03T00:28:26;32.82;;;32.32;;
23573;SDS011;11965;53.640;10.050;2023-03-03T00:30:55;32.99;;;32.49;;
23573;SDS011;11965;53.640;10.050;2023-03-03T00:33:27;33.47;;;32.74;;
23573;SDS011;11965;53.640;10.050;2023-03-03T00:35:58;31.64;;;31.12;;
23573;SDS011;11965;53.640;10.050;2023-03-03T00:38:53;32.26;;;31.93;;
23573;SDS011;11965;53.640;10.050;2023-03-03T00:41:21;31.22;;;31.00;;
23573;SDS011;11965;53.640;10.050;2023-03-03T00:43:50;32.42;;;31.84;;
23573;SDS011;11965;53.640;10.050;2023-03-03T00:46:18;31.47;;;31.06;;
23573;SDS011;11965;53.640;10.050;2023-03-03T00:48:48;33.85;;;33.09;;
23573;SDS011;11965;53.640;10.050;2023-03-03T00:51:20;33.04;;;32.48;;
23573;SDS011;11965;53.640;10.050;2023-03-03T00:53:53;32.85;;;32.34;;
23573;SDS011;11965;53.640;10.050;2023-03-03T00:56:21;31.69;;;31.27;;
23573;SDS011;11965;53.640;10.050;2023-03-03T00:58:48;32.05;;;31.48;;
23573;SDS011;11965;53.640;10.050;2023-03-03T01:01:18;31.18;;;30.67;;
23573;SDS011;11965;53.640;10.050;2023-03-03T01:03:51;31.34;;;30.62;;
23573;SDS011;11965;53.640;10.050;2023-03-03T01:06:17;31.36;;;30.68;;
23573;SDS011;11965;53.640;10.050;2023-03-03T01:08:44;30.81;;;30.62;;
23573;SDS011;11965;53.640;10.050;2023-03-03T01:11:12;30.67;;;30.36;;
23573;SDS011;11965;53.640;10.050;2023-03-03T01:13:43;31.36;;;30.82;;
23573;SDS011;11965;53.640;10.050;2023-03-03T01:16:14;30.54;;;29.90;;
23573;SDS011;11965;53.640;10.050;2023-03-03T01:18:41;31.00;;;30.38;;
23573;SDS011;11965;53.640;10.050;2023-03-03T01:21:09;30.11;;;29.41;;
23573;SDS011;11965;53.640;10.050;2023-03-03T01:23:37;29.10;;;28.51;;
23573;SDS011;11965;53.640;10.050;2023-03-03T01:26:05;29.88;;;28.94;;
23573;SDS011;11965;53.640;10.050;2023-03-03T01:28:32;28.51;;;27.91;;
23573;SDS011;11965;53.640;10.050;2023-03-03T01:30:59;28.48;;;28.01;;
23573;SDS011;11965;53.640;10.050;2023-03-03T01:33:28;28.28;;;27.98;;
23573;SDS011;11965;53.640;10.050;2023-03-03T01:35:55;28.92;;;28.33;;
23573;SDS011;11965;53.640;10.050;2023-03-03T01:38:24;29.52;;;29.15;;
23573;SDS011;11965;53.640;10.050;2023-03-03T01:40:51;28.92;;;28.63;;
23573;SDS011;11965;53.640;10.050;2023-03-03T01:43:19;29.11;;;28.77;;
23573;SDS011;11965;53.640;10.050;2023-03-03T01:48:56;29.35;;;28.66;;
23573;SDS011;11965;53.640;10.050;2023-03-03T01:51:28;29.40;;;28.86;;
23573;SDS011;11965;53.640;10.050;2023-03-03T01:54:01;28.28;;;27.88;;
23573;SDS011;11965;53.640;10.050;2023-03-03T01:56:29;28.75;;;28.55;;
23573;SDS011;11965;53.640;10.050;2023-03-03T01:58:57;29.55;;;28.91;;
23573;SDS011;11965;53.640;10.050;2023-03-03T02:01:30;29.31;;;28.78;;
23573;SDS011;11965;53.640;10.050;2023-03-03T02:03:59;29.37;;;28.56;;
23573;SDS011;11965;53.640;10.050;2023-03-03T02:06:26;28.15;;;27.84;;
23573;SDS011;11965;53.640;10.050;2023-03-03T02:09:03;28.35;;;27.85;;
23573;SDS011;11965;53.640;10.050;2023-03-03T02:11:38;28.64;;;27.96;;
23573;SDS011;11965;53.640;10.050;2023-03-03T02:14:09;28.93;;;28.23;;
23573;SDS011;11965;53.640;10.050;2023-03-03T02:16:39;28.93;;;28.21;;
23573;SDS011;11965;53.640;10.050;2023-03-03T02:19:08;28.66;;;27.99;;
23573;SDS011;11965;53.640;10.050;2023-03-03T02:21:47;28.27;;;27.66;;
23573;SDS011;11965;53.640;10.050;2023-03-03T02:24:17;27.99;;;27.30;;
23573;SDS011;11965;53.640;10.050;2023-03-03T02:26:54;26.38;;;26.10;;
23573;SDS011;11965;53.640;10.050;2023-03-03T02:29:21;27.10;;;26.27;;
23573;SDS011;11965;53.640;10.050;2023-03-03T02:31:48;27.29;;;26.78;;
23573;SDS011;11965;53.640;10.050;2023-03-03T02:34:15;27.81;;;26.97;;
23573;SDS011;11965;53.640;10.050;2023-03-03T02:36:42;28.19;;;27.35;;
23573;SDS011;11965;53.640;10.050;2023-03-03T02:39:09;26.89;;;26.35;;
23573;SDS011;11965;53.640;10.050;2023-03-03T02:41:44;26.04;;;25.58;;
23573;SDS011;11965;53.640;10.050;2023-03-03T02:44:20;27.55;;;26.52;;
23573;SDS011;11965;53.640;10.050;2023-03-03T02:46:49;26.39;;;25.88;;
23573;SDS011;11965;53.640;10.050;2023-03-03T02:49:18;25.77;;;25.20;;
23573;SDS011;11965;53.640;10.050;2023-03-03T02:51:46;26.50;;;25.79;;
23573;SDS011;11965;53.640;10.050;2023-03-03T02:54:15;26.49;;;25.67;;
23573;SDS011;11965;53.640;10.050;2023-03-03T02:56:44;26.68;;;25.84;;
23573;SDS011;11965;53.640;10.050;2023-03-03T02:59:11;25.71;;;25.21;;
23573;SDS011;11965;53.640;10.050;2023-03-03T03:01:45;24.56;;;24.17;;
23573;SDS011;11965;53.640;10.050;2023-03-03T03:04:15;25.93;;;25.58;;
23573;SDS011;11965;53.640;10.050;2023-03-03T03:06:47;25.05;;;24.58;;
23573;SDS011;11965;53.640;10.050;2023-03-03T03:09:15;25.25;;;24.91;;
23573;SDS011;11965;53.640;10.050;2023-03-03T03:11:45;25.22;;;24.77;;
23573;SDS011;11965;53.640;10.050;2023-03-03T03:14:14;24.99;;;24.78;;
23573;SDS011;11965;53.640;10.050;2023-03-03T03:16:42;25.04;;;24.25;;
23573;SDS011;11965;53.640;10.050;2023-03-03T03:19:10;24.75;;;24.48;;
23573;SDS011;11965;53.640;10.050;2023-03-03T03:21:39;25.35;;;24.79;;
23573;SDS011;11965;53.640;10.050;2023-03-03T03:24:07;25.50;;;24.36;;
23573;SDS011;11965;53.640;10.050;2023-03-03T03:26:36;25.20;;;24.27;;
23573;SDS011;11965;53.640;10.050;2023-03-03T03:29:03;24.59;;;23.88;;
23573;SDS011;11965;53.640;10.050;2023-03-03T03:31:30;24.75;;;24.52;;
23573;SDS011;11965;53.640;10.050;2023-03-03T03:33:57;24.68;;;24.27;;
23573;SDS011;11965;53.640;10.050;2023-03-03T03:36:27;24.54;;;24.00;;
23573;SDS011;11965;53.640;10.050;2023-03-03T03:38:54;24.84;;;24.04;;
23573;SDS011;11965;53.640;10.050;2023-03-03T03:41:21;25.11;;;24.49;;
23573;SDS011;11965;53.640;10.050;2023-03-03T03:43:48;24.92;;;24.56;;
23573;SDS011;11965;53.640;10.050;2023-03-03T03:46:15;25.05;;;24.57;;
23573;SDS011;11965;53.640;10.050;2023-03-03T03:48:42;24.43;;;24.07;;
23573;SDS011;11965;53.640;10.050;2023-03-03T03:51:11;26.07;;;25.23;;
23573;SDS011;11965;53.640;10.050;2023-03-03T03:53:40;26.34;;;25.44;;
23573;SDS011;11965;53.640;10.050;2023-03-03T03:56:07;26.30;;;25.71;;
23573;SDS011;11965;53.640;10.050;2023-03-03T03:58:34;25.64;;;25.33;;
23573;SDS011;11965;53.640;10.050;2023-03-03T04:01:06;25.58;;;25.33;;
23573;SDS011;11965;53.640;10.050;2023-03-03T04:03:39;26.83;;;25.92;;
23573;SDS011;11965;53.640;10.050;2023-03-03T04:06:10;26.74;;;25.95;;
23573;SDS011;11965;53.640;10.050;2023-03-03T04:08:37;26.32;;;25.58;;
23573;SDS011;11965;53.640;10.050;2023-03-03T04:11:05;25.85;;;25.04;;
23573;SDS011;11965;53.640;10.050;2023-03-03T04:13:32;26.33;;;25.13;;
23573;SDS011;11965;53.640;10.050;2023-03-03T04:16:00;25.54;;;24.83;;
23573;SDS011;11965;53.640;10.050;2023-03-03T04:18:27;25.34;;;24.38;;
23573;SDS011;11965;53.640;10.050;2023-03-03T04:20:54;25.73;;;24.80;;
23573;SDS011;11965;53.640;10.050;2023-03-03T04:23:22;26.77;;;25.58;;
23573;SDS011;11965;53.640;10.050;2023-03-03T04:25:49;26.42;;;25.32;;
23573;SDS011;11965;53.640;10.050;2023-03-03T04:28:18;25.78;;;24.71;;
23573;SDS011;11965;53.640;10.050;2023-03-03T04:30:46;25.04;;;24.66;;
23573;SDS011;11965;53.640;10.050;2023-03-03T04:33:15;26.27;;;25.19;;
23573;SDS011;11965;53.640;10.050;2023-03-03T04:35:42;26.62;;;25.56;;
23573;SDS011;11965;53.640;10.050;2023-03-03T04:38:09;26.86;;;25.84;;
23573;SDS011;11965;53.640;10.050;2023-03-03T04:40:38;26.86;;;25.92;;
23573;SDS011;11965;53.640;10.050;2023-03-03T04:43:05;25.66;;;24.75;;
23573;SDS011;11965;53.640;10.050;2023-03-03T04:45:34;25.81;;;25.07;;
23573;SDS011;11965;53.640;10.050;2023-03-03T04:48:01;26.14;;;25.15;;
23573;SDS011;11965;53.640;10.050;2023-03-03T04:50:29;25.95;;;25.08;;
23573;SDS011;11965;53.640;10.050;2023-03-03T04:52:56;26.14;;;25.15;;
23573;SDS011;11965;53.640;10.050;2023-03-03T04:55:23;25.98;;;24.93;;
23573;SDS011;11965;53.640;10.050;2023-03-03T04:57:57;25.90;;;24.97;;
23573;SDS011;11965;53.640;10.050;2023-03-03T05:00:24;24.56;;;23.87;;
23573;SDS011;11965;53.640;10.050;2023-03-03T05:02:53;26.05;;;25.18;;
23573;SDS011;11965;53.640;10.050;2023-03-03T05:05:19;25.70;;;24.90;;
23573;SDS011;11965;53.640;10.050;2023-03-03T05:07:46;25.98;;;25.13;;
23573;SDS011;11965;53.640;10.050;2023-03-03T05:10:13;24.78;;;24.55;;
23573;SDS011;11965;53.640;10.050;2023-03-03T05:12:40;25.31;;;24.77;;
23573;SDS011;11965;53.640;10.050;2023-03-03T05:15:07;25.33;;;24.60;;
23573;SDS011;11965;53.640;10.050;2023-03-03T05:17:35;25.11;;;24.68;;
23573;SDS011;11965;53.640;10.050;2023-03-03T05:20:04;25.69;;;24.99;;
23573;SDS011;11965;53.640;10.050;2023-03-03T05:22:32;24.52;;;23.90;;
23573;SDS011;11965;53.640;10.050;2023-03-03T05:24:59;25.48;;;24.32;;
23573;SDS011;11965;53.640;10.050;2023-03-03T05:27:26;24.87;;;23.97;;
23573;SDS011;11965;53.640;10.050;2023-03-03T05:29:53;24.50;;;23.71;;
23573;SDS011;11965;53.640;10.050;2023-03-03T05:32:21;23.93;;;23.33;;
23573;SDS011;11965;53.640;10.050;2023-03-03T05:34:48;21.91;;;21.34;;
23573;SDS011;11965;53.640;10.050;2023-03-03T05:37:18;22.57;;;22.10;;
23573;SDS011;11965;53.640;10.050;2023-03-03T05:39:44;22.58;;;21.87;;
23573;SDS011;11965;53.640;10.050;2023-03-03T05:42:11;22.04;;;21.62;;
23573;SDS011;11965;53.640;10.050;2023-03-03T05:44:38;23.33;;;22.64;;
23573;SDS011;11965;53.640;10.050;2023-03-03T05:47:05;23.07;;;22.47;;
23573;SDS011;11965;53.640;10.050;2023-03-03T05:49:32;22.89;;;22.30;;
23573;SDS011;11965;53.640;10.050;2023-03-03T05:51:59;21.30;;;20.93;;
23573;SDS011;11965;53.640;10.050;2023-03-03T05:54:27;21.28;;;20.96;;
23573;SDS011;11965;53.640;10.050;2023-03-03T05:56:54;20.92;;;20.84;;
23573;SDS011;11965;53.640;10.050;2023-03-03T05:59:22;21.41;;;20.70;;
23573;SDS011;11965;53.640;10.050;2023-03-03T06:01:49;22.81;;;22.20;;
23573;SDS011;11965;53.640;10.050;2023-03-03T06:04:18;23.21;;;22.31;;
23573;SDS011;11965;53.640;10.050;2023-03-03T06:06:45;23.27;;;22.77;;
23573;SDS011;11965;53.640;10.050;2023-03-03T06:09:12;23.64;;;22.77;;
23573;SDS011;11965;53.640;10.050;2023-03-03T06:11:41;24.45;;;23.74;;
23573;SDS011;11965;53.640;10.050;2023-03-03T06:14:08;25.55;;;24.65;;
23573;SDS011;11965;53.640;10.050;2023-03-03T06:16:34;24.86;;;24.07;;
23573;SDS011;11965;53.640;10.050;2023-03-03T06:19:02;25.25;;;24.57;;
23573;SDS011;11965;53.640;10.050;2023-03-03T06:21:28;26.17;;;25.20;;
23573;SDS011;11965;53.640;10.050;2023-03-03T06:23:55;27.23;;;26.44;;
23573;SDS011;11965;53.640;10.050;2023-03-03T06:26:22;26.64;;;25.44;;
23573;SDS011;11965;53.640;10.050;2023-03-03T06:28:50;26.09;;;25.28;;
23573;SDS011;11965;53.640;10.050;2023-03-03T06:31:19;26.05;;;25.09;;
23573;SDS011;11965;53.640;10.050;2023-03-03T06:33:46;24.96;;;24.13;;
23573;SDS011;11965;53.640;10.050;2023-03-03T06:36:13;24.44;;;23.90;;
23573;SDS011;11965;53.640;10.050;2023-03-03T06:38:40;24.92;;;23.76;;
23573;SDS011;11965;53.640;10.050;2023-03-03T06:41:07;25.37;;;24.16;;
23573;SDS011;11965;53.640;10.050;2023-03-03T06:43:33;24.48;;;23.29;;
23573;SDS011;11965;53.640;10.050;2023-03-03T06:46:02;23.64;;;22.89;;
23573;SDS011;11965;53.640;10.050;2023-03-03T06:48:29;22.96;;;22.25;;
23573;SDS011;11965;53.640;10.050;2023-03-03T06:50:58;22.94;;;22.18;;
23573;SDS011;11965;53.640;10.050;2023-03-03T06:53:25;22.11;;;21.57;;
23573;SDS011;11965;53.640;10.050;2023-03-03T06:55:53;20.60;;;20.31;;
23573;SDS011;11965;53.640;10.050;2023-03-03T06:58:21;19.94;;;19.81;;
23573;SDS011;11965;53.640;10.050;2023-03-03T07:00:49;19.80;;;19.43;;
23573;SDS011;11965;53.640;10.050;2023-03-03T07:03:23;19.26;;;19.16;;
23573;SDS011;11965;53.640;10.050;2023-03-03T07:05:52;19.23;;;19.02;;
23573;SDS011;11965;53.640;10.050;2023-03-03T07:08:20;20.32;;;19.72;;
23573;SDS011;11965;53.640;10.050;2023-03-03T07:10:49;21.50;;;20.84;;
23573;SDS011;11965;53.640;10.050;2023-03-03T07:13:19;21.31;;;20.89;;
23573;SDS011;11965;53.640;10.050;2023-03-03T07:15:48;21.14;;;20.80;;
23573;SDS011;11965;53.640;10.050;2023-03-03T07:18:21;20.02;;;19.64;;
23573;SDS011;11965;53.640;10.050;2023-03-03T07:20:57;19.74;;;19.46;;
23573;SDS011;11965;53.640;10.050;2023-03-03T07:23:25;19.89;;;19.74;;
23573;SDS011;11965;53.640;10.050;2023-03-03T07:25:57;19.21;;;18.87;;
23573;SDS011;11965;53.640;10.050;2023-03-03T07:28:24;19.47;;;18.85;;
23573;SDS011;11965;53.640;10.050;2023-03-03T07:30:54;19.21;;;18.81;;
23573;SDS011;11965;53.640;10.050;2023-03-03T07:33:24;20.12;;;19.80;;
23573;SDS011;11965;53.640;10.050;2023-03-03T07:35:55;19.39;;;19.05;;
23573;SDS011;11965;53.640;10.050;2023-03-03T07:38:24;18.81;;;18.60;;
23573;SDS011;11965;53.640;10.050;2023-03-03T07:40:57;18.61;;;18.24;;
23573;SDS011;11965;53.640;10.050;2023-03-03T07:43:33;18.44;;;17.89;;
23573;SDS011;11965;53.640;10.050;2023-03-03T07:46:18;17.22;;;16.84;;
23573;SDS011;11965;53.640;10.050;2023-03-03T07:48:53;16.37;;;16.16;;
23573;SDS011;11965;53.640;10.050;2023-03-03T07:51:22;14.93;;;14.68;;
23573;SDS011;11965;53.640;10.050;2023-03-03T07:53:52;14.87;;;14.68;;
23573;SDS011;11965;53.640;10.050;2023-03-03T07:56:27;15.53;;;15.13;;
23573;SDS011;11965;53.640;10.050;2023-03-03T07:58:56;14.32;;;14.07;;
23573;SDS011;11965;53.640;10.050;2023-03-03T08:01:37;17.35;;;17.18;;
23573;SDS011;11965;53.640;10.050;2023-03-03T08:04:22;20.13;;;19.89;;
23573;SDS011;11965;53.640;10.050;2023-03-03T08:06:54;25.26;;;25.17;;
23573;SDS011;11965;53.640;10.050;2023-03-03T08:09:30;15.53;;;15.41;;
23573;SDS011;11965;53.640;10.050;2023-03-03T08:15:19;61.69;;;61.31;;
23573;SDS011;11965;53.640;10.050;2023-03-03T08:17:49;30.01;;;29.91;;
23573;SDS011;11965;53.640;10.050;2023-03-03T08:23:11;15.90;;;15.87;;
23573;SDS011;11965;53.640;10.050;2023-03-03T08:25:40;14.97;;;14.93;;
23573;SDS011;11965;53.640;10.050;2023-03-03T08:28:07;16.60;;;16.50;;
23573;SDS011;11965;53.640;10.050;2023-03-03T08:30:35;15.87;;;15.65;;
23573;SDS011;11965;53.640;10.050;2023-03-03T08:33:02;15.74;;;15.67;;
23573;SDS011;11965;53.640;10.050;2023-03-03T08:35:29;15.95;;;15.63;;
23573;SDS011;11965;53.640;10.050;2023-03-03T08:37:57;16.42;;;16.25;;
23573;SDS011;11965;53.640;10.050;2023-03-03T08:40:24;13.96;;;13.83;;
23573;SDS011;11965;53.640;10.050;2023-03-03T08:42:51;14.79;;;14.73;;
23573;SDS011;11965;53.640;10.050;2023-03-03T08:45:18;13.98;;;13.95;;
23573;SDS011;11965;53.640;10.050;2023-03-03T08:47:45;13.35;;;13.35;;
23573;SDS011;11965;53.640;10.050;2023-03-03T08:50:12;13.89;;;13.70;;
23573;SDS011;11965;53.640;10.050;2023-03-03T08:52:39;12.91;;;12.81;;
23573;SDS011;11965;53.640;10.050;2023-03-03T08:55:08;14.47;;;14.46;;
23573;SDS011;11965;53.640;10.050;2023-03-03T08:57:35;39.76;;;39.76;;
23573;SDS011;11965;53.640;10.050;2023-03-03T09:00:03;13.74;;;13.74;;
23573;SDS011;11965;53.640;10.050;2023-03-03T09:02:31;16.65;;;16.65;;
23573;SDS011;11965;53.640;10.050;2023-03-03T09:04:58;42.82;;;42.58;;
23573;SDS011;11965;53.640;10.050;2023-03-03T09:07:25;17.42;;;17.40;;
23573;SDS011;11965;53.640;10.050;2023-03-03T09:09:52;13.77;;;13.58;;
23573;SDS011;11965;53.640;10.050;2023-03-03T09:12:21;13.39;;;13.19;;
23573;SDS011;11965;53.640;10.050;2023-03-03T09:14:55;12.74;;;12.57;;
23573;SDS011;11965;53.640;10.050;2023-03-03T09:17:27;13.11;;;13.11;;
23573;SDS011;11965;53.640;10.050;2023-03-03T09:19:58;11.99;;;11.99;;
23573;SDS011;11965;53.640;10.050;2023-03-03T09:22:37;11.94;;;11.93;;
23573;SDS011;11965;53.640;10.050;2023-03-03T09:25:05;12.56;;;12.56;;
23573;SDS011;11965;53.640;10.050;2023-03-03T09:27:49;12.42;;;12.36;;
23573;SDS011;11965;53.640;10.050;2023-03-03T09:30:26;13.46;;;13.33;;
23573;SDS011;11965;53.640;10.050;2023-03-03T09:33:01;13.14;;;12.99;;
23573;SDS011;11965;53.640;10.050;2023-03-03T09:35:50;10.35;;;10.13;;
23573;SDS011;11965;53.640;10.050;2023-03-03T09:38:27;9.51;;;9.22;;
23573;SDS011;11965;53.640;10.050;2023-03-03T09:44:05;9.76;;;9.63;;
23573;SDS011;11965;53.640;10.050;2023-03-03T09:46:50;11.45;;;11.30;;
23573;SDS011;11965;53.640;10.050;2023-03-03T09:49:35;11.93;;;11.92;;
23573;SDS011;11965;53.640;10.050;2023-03-03T09:52:24;15.03;;;14.99;;
23573;SDS011;11965;53.640;10.050;2023-03-03T09:55:06;16.06;;;16.05;;
23573;SDS011;11965;53.640;10.050;2023-03-03T09:58:01;15.54;;;15.34;;
23573;SDS011;11965;53.640;10.050;2023-03-03T10:00:49;14.82;;;14.79;;
23573;SDS011;11965;53.640;10.050;2023-03-03T10:06:40;14.09;;;14.06;;
23573;SDS011;11965;53.640;10.050;2023-03-03T10:09:30;13.46;;;13.32;;
23573;SDS011;11965;53.640;10.050;2023-03-03T10:12:11;15.70;;;15.51;;
23573;SDS011;11965;53.640;10.050;2023-03-03T10:14:51;11.64;;;11.59;;
23573;SDS011;11965;53.640;10.050;2023-03-03T10:17:38;12.40;;;12.11;;
23573;SDS011;11965;53.640;10.050;2023-03-03T10:20:19;14.45;;;14.45;;
23573;SDS011;11965;53.640;10.050;2023-03-03T10:22:59;12.38;;;12.01;;
23573;SDS011;11965;53.640;10.050;2023-03-03T10:25:39;12.80;;;12.35;;
23573;SDS011;11965;53.640;10.050;2023-03-03T10:28:19;11.54;;;11.50;;
23573;SDS011;11965;53.640;10.050;2023-03-03T10:31:11;11.67;;;11.50;;
23573;SDS011;11965;53.640;10.050;2023-03-03T10:33:55;11.01;;;10.93;;
23573;SDS011;11965;53.640;10.050;2023-03-03T10:36:33;10.93;;;10.71;;
23573;SDS011;11965;53.640;10.050;2023-03-03T10:39:24;11.51;;;11.22;;
23573;SDS011;11965;53.640;10.050;2023-03-03T10:48:03;12.72;;;12.50;;
23573;SDS011;11965;53.640;10.050;2023-03-03T10:50:51;13.98;;;13.65;;
23573;SDS011;11965;53.640;10.050;2023-03-03T10:53:31;15.08;;;14.71;;
23573;SDS011;11965;53.640;10.050;2023-03-03T10:56:09;15.96;;;15.36;;
23573;SDS011;11965;53.640;10.050;2023-03-03T10:58:58;17.42;;;16.86;;
23573;SDS011;11965;53.640;10.050;2023-03-03T11:01:38;19.12;;;18.46;;
23573;SDS011;11965;53.640;10.050;2023-03-03T11:04:24;19.31;;;18.98;;
23573;SDS011;11965;53.640;10.050;2023-03-03T11:07:26;19.88;;;19.36;;
23573;SDS011;11965;53.640;10.050;2023-03-03T11:10:03;19.54;;;19.00;;
23573;SDS011;11965;53.640;10.050;2023-03-03T11:12:48;20.43;;;20.02;;
23573;SDS011;11965;53.640;10.050;2023-03-03T11:15:30;21.24;;;20.82;;
23573;SDS011;11965;53.640;10.050;2023-03-03T11:18:12;22.09;;;21.75;;
23573;SDS011;11965;53.640;10.050;2023-03-03T11:20:51;22.82;;;22.14;;
23573;SDS011;11965;53.640;10.050;2023-03-03T11:23:38;25.08;;;24.06;;
23573;SDS011;11965;53.640;10.050;2023-03-03T11:26:19;25.74;;;24.88;;
23573;SDS011;11965;53.640;10.050;2023-03-03T11:29:13;25.23;;;24.59;;
23573;SDS011;11965;53.640;10.050;2023-03-03T11:31:56;24.72;;;24.09;;
23573;SDS011;11965;53.640;10.050;2023-03-03T11:34:47;25.80;;;25.27;;
23573;SDS011;11965;53.640;10.050;2023-03-03T11:37:26;25.15;;;24.55;;
23573;SDS011;11965;53.640;10.050;2023-03-03T11:40:08;22.94;;;22.35;;
23573;SDS011;11965;53.640;10.050;2023-03-03T11:42:45;21.22;;;20.99;;
23573;SDS011;11965;53.640;10.050;2023-03-03T11:45:23;19.87;;;19.86;;
23573;SDS011;11965;53.640;10.050;2023-03-03T11:48:00;19.52;;;19.39;;
23573;SDS011;11965;53.640;10.050;2023-03-03T11:50:42;20.26;;;19.93;;
23573;SDS011;11965;53.640;10.050;2023-03-03T11:53:26;18.18;;;18.02;;
23573;SDS011;11965;53.640;10.050;2023-03-03T11:56:05;21.29;;;20.57;;
23573;SDS011;11965;53.640;10.050;2023-03-03T11:58:47;20.39;;;19.54;;
23573;SDS011;11965;53.640;10.050;2023-03-03T12:01:25;20.93;;;20.46;;
23573;SDS011;11965;53.640;10.050;2023-03-03T12:04:00;21.60;;;21.29;;
23573;SDS011;11965;53.640;10.050;2023-03-03T12:06:32;23.53;;;23.07;;
23573;SDS011;11965;53.640;10.050;2023-03-03T12:09:15;23.70;;;22.95;;
23573;SDS011;11965;53.640;10.050;2023-03-03T12:11:56;23.74;;;23.03;;
23573;SDS011;11965;53.640;10.050;2023-03-03T12:14:38;24.95;;;24.24;;
23573;SDS011;11965;53.640;10.050;2023-03-03T12:17:26;25.24;;;24.76;;
23573;SDS011;11965;53.640;10.050;2023-03-03T12:20:17;42.74;;;41.55;;
23573;SDS011;11965;53.640;10.050;2023-03-03T12:23:03;26.66;;;26.03;;
23573;SDS011;11965;53.640;10.050;2023-03-03T12:25:44;23.02;;;22.48;;
23573;SDS011;11965;53.640;10.050;2023-03-03T12:28:17;23.44;;;23.09;;
23573;SDS011;11965;53.640;10.050;2023-03-03T12:33:50;20.82;;;20.74;;
23573;SDS011;11965;53.640;10.050;2023-03-03T12:39:16;19.36;;;18.91;;
23573;SDS011;11965;53.640;10.050;2023-03-03T12:41:56;18.53;;;18.16;;
23573;SDS011;11965;53.640;10.050;2023-03-03T12:44:34;16.60;;;16.34;;
23573;SDS011;11965;53.640;10.050;2023-03-03T12:47:11;16.27;;;16.09;;
23573;SDS011;11965;53.640;10.050;2023-03-03T12:49:46;16.58;;;16.19;;
23573;SDS011;11965;53.640;10.050;2023-03-03T12:52:28;15.55;;;15.25;;
23573;SDS011;11965;53.640;10.050;2023-03-03T12:55:10;14.75;;;14.56;;
23573;SDS011;11965;53.640;10.050;2023-03-03T12:57:50;15.40;;;15.08;;
23573;SDS011;11965;53.640;10.050;2023-03-03T13:00:33;15.39;;;15.19;;
23573;SDS011;11965;53.640;10.050;2023-03-03T13:03:16;21.13;;;20.61;;
23573;SDS011;11965;53.640;10.050;2023-03-03T13:06:03;18.02;;;17.49;;
23573;SDS011;11965;53.640;10.050;2023-03-03T13:08:45;14.99;;;14.69;;
23573;SDS011;11965;53.640;10.050;2023-03-03T13:11:26;13.41;;;13.30;;
23573;SDS011;11965;53.640;10.050;2023-03-03T13:14:09;11.54;;;11.45;;
23573;SDS011;11965;53.640;10.050;2023-03-03T13:16:50;10.50;;;10.42;;
23573;SDS011;11965;53.640;10.050;2023-03-03T13:19:30;11.84;;;11.63;;
23573;SDS011;11965;53.640;10.050;2023-03-03T13:22:05;9.41;;;9.27;;
23573;SDS011;11965;53.640;10.050;2023-03-03T13:24:41;9.82;;;9.80;;
23573;SDS011;11965;53.640;10.050;2023-03-03T13:27:19;7.87;;;7.84;;
23573;SDS011;11965;53.640;10.050;2023-03-03T13:29:55;5.90;;;5.87;;
23573;SDS011;11965;53.640;10.050;2023-03-03T13:32:30;7.63;;;7.63;;
23573;SDS011;11965;53.640;10.050;2023-03-03T13:35:06;6.45;;;6.45;;
23573;SDS011;11965;53.640;10.050;2023-03-03T13:37:45;4.85;;;4.85;;
23573;SDS011;11965;53.640;10.050;2023-03-03T13:40:18;4.73;;;4.73;;
23573;SDS011;11965;53.640;10.050;2023-03-03T13:42:51;4.78;;;4.78;;
23573;SDS011;11965;53.640;10.050;2023-03-03T13:45:26;4.08;;;4.08;;
23573;SDS011;11965;53.640;10.050;2023-03-03T13:48:03;3.16;;;3.16;;
23573;SDS011;11965;53.640;10.050;2023-03-03T13:50:42;3.02;;;3.02;;
23573;SDS011;11965;53.640;10.050;2023-03-03T13:53:25;2.65;;;2.65;;
23573;SDS011;11965;53.640;10.050;2023-03-03T13:56:08;2.54;;;2.54;;
23573;SDS011;11965;53.640;10.050;2023-03-03T13:58:50;2.68;;;2.68;;
23573;SDS011;11965;53.640;10.050;2023-03-03T14:01:27;2.94;;;2.93;;
23573;SDS011;11965;53.640;10.050;2023-03-03T14:04:12;2.76;;;2.73;;
23573;SDS011;11965;53.640;10.050;2023-03-03T14:06:52;2.63;;;2.61;;
23573;SDS011;11965;53.640;10.050;2023-03-03T14:09:34;2.44;;;2.41;;
23573;SDS011;11965;53.640;10.050;2023-03-03T14:12:28;2.90;;;2.86;;
23573;SDS011;11965;53.640;10.050;2023-03-03T14:15:08;2.40;;;2.39;;
23573;SDS011;11965;53.640;10.050;2023-03-03T14:17:48;5.80;;;5.80;;
23573;SDS011;11965;53.640;10.050;2023-03-03T14:20:30;3.29;;;3.29;;
23573;SDS011;11965;53.640;10.050;2023-03-03T14:23:02;2.94;;;2.94;;
23573;SDS011;11965;53.640;10.050;2023-03-03T14:25:53;2.48;;;2.47;;
23573;SDS011;11965;53.640;10.050;2023-03-03T14:28:24;2.35;;;2.33;;
23573;SDS011;11965;53.640;10.050;2023-03-03T14:30:53;1.97;;;1.93;;
23573;SDS011;11965;53.640;10.050;2023-03-03T14:33:25;2.47;;;2.40;;
23573;SDS011;11965;53.640;10.050;2023-03-03T14:36:10;2.84;;;2.76;;
23573;SDS011;11965;53.640;10.050;2023-03-03T14:38:42;2.42;;;2.36;;
23573;SDS011;11965;53.640;10.050;2023-03-03T14:41:17;2.07;;;2.02;;
23573;SDS011;11965;53.640;10.050;2023-03-03T14:43:55;1.93;;;1.88;;
23573;SDS011;11965;53.640;10.050;2023-03-03T14:46:30;2.22;;;2.13;;
23573;SDS011;11965;53.640;10.050;2023-03-03T14:49:00;2.77;;;2.61;;
23573;SDS011;11965;53.640;10.050;2023-03-03T14:51:30;3.08;;;2.93;;
23573;SDS011;11965;53.640;10.050;2023-03-03T14:54:07;3.98;;;3.92;;
23573;SDS011;11965;53.640;10.050;2023-03-03T14:56:53;3.55;;;3.52;;
23573;SDS011;11965;53.640;10.050;2023-03-03T14:59:26;2.18;;;2.11;;
23573;SDS011;11965;53.640;10.050;2023-03-03T15:02:07;2.05;;;1.94;;
23573;SDS011;11965;53.640;10.050;2023-03-03T15:05:05;2.21;;;2.06;;
23573;SDS011;11965;53.640;10.050;2023-03-03T15:07:46;2.47;;;2.22;;
23573;SDS011;11965;53.640;10.050;2023-03-03T15:10:27;2.67;;;2.35;;
23573;SDS011;11965;53.640;10.050;2023-03-03T15:12:56;2.92;;;2.53;;